sensor_id;sensor_type;location;lat;lon;timestamp;P1;durP1;ratioP1;P2;durP2;ratioP2
10275;SDS011;5183;51.190;6.820;2023-04-01T00:00:22;5.13;;;1.70;;
10275;SDS011;5183;51.190;6.820;2023-04-01T00:02:50;5.03;;;1.93;;
10275;SDS011;5183;51.190;6.820;2023-04-01T00:05:17;3.27;;;2.00;;
10275;SDS011;5183;51.190;6.820;2023-04-01T00:07:44;4.63;;;2.33;;
10275;SDS011;5183;51.190;6.820;2023-04-01T00:10:12;3.73;;;2.30;;
10275;SDS011;5183;51.190;6.820;2023-04-01T00:12:39;5.23;;;2.10;;
10275;SDS011;5183;51.190;6.820;2023-04-01T00:15:09;4.77;;;2.17;;
10275;SDS011;5183;51.190;6.820;2023-04-01T00:17:37;3.93;;;1.70;;
10275;SDS011;5183;51.190;6.820;2023-04-01T00:20:05;4.83;;;1.70;;
10275;SDS011;5183;51.190;6.820;2023-04-01T00:22:34;6.37;;;2.43;;
10275;SDS011;5183;51.190;6.820;2023-04-01T00:25:01;5.70;;;2.10;;
10275;SDS011;5183;51.190;6.820;2023-04-01T00:27:29;2.73;;;1.20;;
10275;SDS011;5183;51.190;6.820;2023-04-01T00:29:56;3.00;;;1.40;;
10275;SDS011;5183;51.190;6.820;2023-04-01T00:32:24;4.13;;;1.40;;
10275;SDS011;5183;51.190;6.820;2023-04-01T00:34:51;4.23;;;1.73;;
10275;SDS011;5183;51.190;6.820;2023-04-01T00:37:19;3.77;;;1.70;;
10275;SDS011;5183;51.190;6.820;2023-04-01T00:39:46;3.67;;;1.83;;
10275;SDS011;5183;51.190;6.820;2023-04-01T00:42:13;2.60;;;1.30;;
10275;SDS011;5183;51.190;6.820;2023-04-01T00:44:40;3.37;;;1.53;;
10275;SDS011;5183;51.190;6.820;2023-04-01T00:47:11;2.23;;;1.37;;
10275;SDS011;5183;51.190;6.820;2023-04-01T00:49:39;2.67;;;1.57;;
10275;SDS011;5183;51.190;6.820;2023-04-01T00:52:08;3.13;;;1.60;;
10275;SDS011;5183;51.190;6.820;2023-04-01T00:54:40;4.30;;;1.90;;
10275;SDS011;5183;51.190;6.820;2023-04-01T00:57:10;4.07;;;2.30;;
10275;SDS011;5183;51.190;6.820;2023-04-01T00:59:40;4.37;;;2.00;;
10275;SDS011;5183;51.190;6.820;2023-04-01T01:02:10;3.63;;;2.00;;
10275;SDS011;5183;51.190;6.820;2023-04-01T01:04:40;2.97;;;1.60;;
10275;SDS011;5183;51.190;6.820;2023-04-01T01:07:11;3.53;;;2.07;;
10275;SDS011;5183;51.190;6.820;2023-04-01T01:09:47;2.47;;;1.50;;
10275;SDS011;5183;51.190;6.820;2023-04-01T01:12:21;4.57;;;1.53;;
10275;SDS011;5183;51.190;6.820;2023-04-01T01:14:53;3.70;;;1.70;;
10275;SDS011;5183;51.190;6.820;2023-04-01T01:17:38;4.90;;;1.90;;
10275;SDS011;5183;51.190;6.820;2023-04-01T01:26:18;3.37;;;1.80;;
10275;SDS011;5183;51.190;6.820;2023-04-01T01:29:04;5.20;;;1.83;;
10275;SDS011;5183;51.190;6.820;2023-04-01T01:31:41;3.43;;;1.73;;
10275;SDS011;5183;51.190;6.820;2023-04-01T01:34:17;2.67;;;1.57;;
10275;SDS011;5183;51.190;6.820;2023-04-01T01:36:50;4.67;;;2.40;;
10275;SDS011;5183;51.190;6.820;2023-04-01T01:39:21;4.27;;;2.10;;
10275;SDS011;5183;51.190;6.820;2023-04-01T01:41:52;3.50;;;1.90;;
10275;SDS011;5183;51.190;6.820;2023-04-01T01:44:21;4.27;;;1.67;;
10275;SDS011;5183;51.190;6.820;2023-04-01T01:46:50;4.53;;;1.60;;
10275;SDS011;5183;51.190;6.820;2023-04-01T01:49:17;3.83;;;1.90;;
10275;SDS011;5183;51.190;6.820;2023-04-01T01:51:45;5.40;;;2.37;;
10275;SDS011;5183;51.190;6.820;2023-04-01T01:54:14;3.20;;;2.03;;
10275;SDS011;5183;51.190;6.820;2023-04-01T01:56:42;4.60;;;2.30;;
10275;SDS011;5183;51.190;6.820;2023-04-01T01:59:12;4.47;;;2.60;;
10275;SDS011;5183;51.190;6.820;2023-04-01T02:01:41;5.77;;;2.40;;
10275;SDS011;5183;51.190;6.820;2023-04-01T02:04:11;4.10;;;2.40;;
10275;SDS011;5183;51.190;6.820;2023-04-01T02:06:41;4.00;;;2.30;;
10275;SDS011;5183;51.190;6.820;2023-04-01T02:09:12;3.70;;;2.10;;
10275;SDS011;5183;51.190;6.820;2023-04-01T02:11:41;3.57;;;2.00;;
10275;SDS011;5183;51.190;6.820;2023-04-01T02:14:13;4.57;;;1.93;;
10275;SDS011;5183;51.190;6.820;2023-04-01T02:16:43;3.70;;;2.17;;
10275;SDS011;5183;51.190;6.820;2023-04-01T02:19:15;3.23;;;1.57;;
10275;SDS011;5183;51.190;6.820;2023-04-01T02:21:47;3.50;;;1.80;;
10275;SDS011;5183;51.190;6.820;2023-04-01T02:24:17;2.17;;;1.37;;
10275;SDS011;5183;51.190;6.820;2023-04-01T02:26:48;2.77;;;1.80;;
10275;SDS011;5183;51.190;6.820;2023-04-01T02:29:17;3.47;;;1.73;;
10275;SDS011;5183;51.190;6.820;2023-04-01T02:31:46;3.17;;;1.80;;
10275;SDS011;5183;51.190;6.820;2023-04-01T02:34:14;3.83;;;1.90;;
10275;SDS011;5183;51.190;6.820;2023-04-01T02:36:41;3.93;;;2.13;;
10275;SDS011;5183;51.190;6.820;2023-04-01T02:39:09;3.93;;;2.37;;
10275;SDS011;5183;51.190;6.820;2023-04-01T02:41:39;3.97;;;2.37;;
10275;SDS011;5183;51.190;6.820;2023-04-01T02:44:08;5.90;;;2.37;;
10275;SDS011;5183;51.190;6.820;2023-04-01T02:46:35;3.53;;;2.17;;
10275;SDS011;5183;51.190;6.820;2023-04-01T02:49:02;3.23;;;1.50;;
10275;SDS011;5183;51.190;6.820;2023-04-01T02:51:30;1.23;;;1.00;;
10275;SDS011;5183;51.190;6.820;2023-04-01T02:53:57;2.33;;;1.20;;
10275;SDS011;5183;51.190;6.820;2023-04-01T02:56:23;1.53;;;1.10;;
10275;SDS011;5183;51.190;6.820;2023-04-01T02:58:51;1.23;;;1.07;;
10275;SDS011;5183;51.190;6.820;2023-04-01T03:01:19;2.20;;;1.00;;
10275;SDS011;5183;51.190;6.820;2023-04-01T03:03:46;2.37;;;1.30;;
10275;SDS011;5183;51.190;6.820;2023-04-01T03:06:14;2.47;;;1.30;;
10275;SDS011;5183;51.190;6.820;2023-04-01T03:08:42;1.53;;;1.30;;
10275;SDS011;5183;51.190;6.820;2023-04-01T03:11:09;3.40;;;1.27;;
10275;SDS011;5183;51.190;6.820;2023-04-01T03:13:36;1.53;;;1.13;;
10275;SDS011;5183;51.190;6.820;2023-04-01T03:16:04;2.60;;;1.00;;
10275;SDS011;5183;51.190;6.820;2023-04-01T03:18:32;2.10;;;1.20;;
10275;SDS011;5183;51.190;6.820;2023-04-01T03:21:11;1.10;;;1.00;;
10275;SDS011;5183;51.190;6.820;2023-04-01T03:23:39;2.80;;;1.20;;
10275;SDS011;5183;51.190;6.820;2023-04-01T03:26:06;0.90;;;0.90;;
10275;SDS011;5183;51.190;6.820;2023-04-01T03:28:33;2.00;;;1.17;;
10275;SDS011;5183;51.190;6.820;2023-04-01T03:31:00;1.37;;;1.10;;
10275;SDS011;5183;51.190;6.820;2023-04-01T03:33:27;2.93;;;1.07;;
10275;SDS011;5183;51.190;6.820;2023-04-01T03:35:55;1.87;;;1.10;;
10275;SDS011;5183;51.190;6.820;2023-04-01T03:38:22;2.60;;;1.00;;
10275;SDS011;5183;51.190;6.820;2023-04-01T03:40:48;1.77;;;1.00;;
10275;SDS011;5183;51.190;6.820;2023-04-01T03:43:15;2.87;;;1.20;;
10275;SDS011;5183;51.190;6.820;2023-04-01T03:45:45;2.00;;;1.13;;
10275;SDS011;5183;51.190;6.820;2023-04-01T03:48:13;2.43;;;1.27;;
10275;SDS011;5183;51.190;6.820;2023-04-01T03:50:40;1.97;;;1.10;;
10275;SDS011;5183;51.190;6.820;2023-04-01T03:53:09;1.37;;;1.17;;
10275;SDS011;5183;51.190;6.820;2023-04-01T03:55:36;1.80;;;0.90;;
10275;SDS011;5183;51.190;6.820;2023-04-01T03:58:03;2.50;;;1.20;;
10275;SDS011;5183;51.190;6.820;2023-04-01T04:00:31;2.67;;;1.23;;
10275;SDS011;5183;51.190;6.820;2023-04-01T04:02:58;2.10;;;1.10;;
10275;SDS011;5183;51.190;6.820;2023-04-01T04:05:26;1.67;;;1.00;;
10275;SDS011;5183;51.190;6.820;2023-04-01T04:07:53;2.37;;;1.20;;
10275;SDS011;5183;51.190;6.820;2023-04-01T04:10:22;1.77;;;1.10;;
10275;SDS011;5183;51.190;6.820;2023-04-01T04:12:50;1.50;;;1.00;;
10275;SDS011;5183;51.190;6.820;2023-04-01T04:15:17;1.10;;;1.00;;
10275;SDS011;5183;51.190;6.820;2023-04-01T04:17:44;1.50;;;0.90;;
10275;SDS011;5183;51.190;6.820;2023-04-01T04:20:11;1.70;;;0.90;;
10275;SDS011;5183;51.190;6.820;2023-04-01T04:22:38;1.83;;;0.97;;
10275;SDS011;5183;51.190;6.820;2023-04-01T04:25:05;1.17;;;1.00;;
10275;SDS011;5183;51.190;6.820;2023-04-01T04:27:34;4.20;;;1.30;;
10275;SDS011;5183;51.190;6.820;2023-04-01T04:30:01;1.53;;;1.17;;
10275;SDS011;5183;51.190;6.820;2023-04-01T04:32:29;1.53;;;1.30;;
10275;SDS011;5183;51.190;6.820;2023-04-01T04:34:56;2.03;;;1.30;;
10275;SDS011;5183;51.190;6.820;2023-04-01T04:37:23;1.30;;;1.20;;
10275;SDS011;5183;51.190;6.820;2023-04-01T04:39:50;1.47;;;1.37;;
10275;SDS011;5183;51.190;6.820;2023-04-01T04:42:17;2.47;;;1.30;;
10275;SDS011;5183;51.190;6.820;2023-04-01T04:44:45;2.90;;;1.60;;
10275;SDS011;5183;51.190;6.820;2023-04-01T04:47:12;2.43;;;1.37;;
10275;SDS011;5183;51.190;6.820;2023-04-01T04:49:39;1.47;;;1.33;;
10275;SDS011;5183;51.190;6.820;2023-04-01T04:52:06;1.33;;;1.10;;
10275;SDS011;5183;51.190;6.820;2023-04-01T04:54:33;2.33;;;1.30;;
10275;SDS011;5183;51.190;6.820;2023-04-01T04:56:59;1.53;;;1.20;;
10275;SDS011;5183;51.190;6.820;2023-04-01T04:59:26;2.87;;;1.50;;
10275;SDS011;5183;51.190;6.820;2023-04-01T05:01:54;1.50;;;1.20;;
10275;SDS011;5183;51.190;6.820;2023-04-01T05:04:21;1.60;;;1.30;;
10275;SDS011;5183;51.190;6.820;2023-04-01T05:06:48;2.97;;;1.70;;
10275;SDS011;5183;51.190;6.820;2023-04-01T05:09:16;2.80;;;2.50;;
10275;SDS011;5183;51.190;6.820;2023-04-01T05:11:43;2.57;;;2.20;;
10275;SDS011;5183;51.190;6.820;2023-04-01T05:14:14;2.20;;;1.40;;
10275;SDS011;5183;51.190;6.820;2023-04-01T05:16:41;2.97;;;1.60;;
10275;SDS011;5183;51.190;6.820;2023-04-01T05:19:10;2.07;;;1.60;;
10275;SDS011;5183;51.190;6.820;2023-04-01T05:21:36;2.23;;;1.80;;
10275;SDS011;5183;51.190;6.820;2023-04-01T05:24:06;2.70;;;1.70;;
10275;SDS011;5183;51.190;6.820;2023-04-01T05:26:34;2.37;;;1.87;;
10275;SDS011;5183;51.190;6.820;2023-04-01T05:29:01;2.20;;;2.00;;
10275;SDS011;5183;51.190;6.820;2023-04-01T05:31:28;2.00;;;1.80;;
10275;SDS011;5183;51.190;6.820;2023-04-01T05:33:55;3.73;;;2.30;;
10275;SDS011;5183;51.190;6.820;2023-04-01T05:36:23;2.57;;;2.00;;
10275;SDS011;5183;51.190;6.820;2023-04-01T05:38:50;5.13;;;2.47;;
10275;SDS011;5183;51.190;6.820;2023-04-01T05:41:20;2.30;;;2.10;;
10275;SDS011;5183;51.190;6.820;2023-04-01T05:43:47;2.27;;;2.00;;
10275;SDS011;5183;51.190;6.820;2023-04-01T05:46:14;3.53;;;2.43;;
10275;SDS011;5183;51.190;6.820;2023-04-01T05:48:43;5.40;;;3.47;;
10275;SDS011;5183;51.190;6.820;2023-04-01T05:51:12;2.67;;;2.27;;
10275;SDS011;5183;51.190;6.820;2023-04-01T05:53:40;2.47;;;2.23;;
10275;SDS011;5183;51.190;6.820;2023-04-01T05:56:08;2.53;;;2.33;;
10275;SDS011;5183;51.190;6.820;2023-04-01T05:58:35;3.60;;;3.30;;
10275;SDS011;5183;51.190;6.820;2023-04-01T06:01:03;4.43;;;2.93;;
10275;SDS011;5183;51.190;6.820;2023-04-01T06:03:31;4.17;;;2.87;;
10275;SDS011;5183;51.190;6.820;2023-04-01T06:05:58;3.93;;;3.03;;
10275;SDS011;5183;51.190;6.820;2023-04-01T06:08:26;4.00;;;3.00;;
10275;SDS011;5183;51.190;6.820;2023-04-01T06:11:01;5.37;;;3.40;;
10275;SDS011;5183;51.190;6.820;2023-04-01T06:13:45;5.70;;;4.10;;
10275;SDS011;5183;51.190;6.820;2023-04-01T06:16:39;5.50;;;3.47;;
10275;SDS011;5183;51.190;6.820;2023-04-01T06:19:18;4.27;;;3.13;;
10275;SDS011;5183;51.190;6.820;2023-04-01T06:22:17;4.23;;;3.60;;
10275;SDS011;5183;51.190;6.820;2023-04-01T06:24:57;4.60;;;3.60;;
10275;SDS011;5183;51.190;6.820;2023-04-01T06:27:55;4.97;;;3.93;;
10275;SDS011;5183;51.190;6.820;2023-04-01T06:30:48;5.33;;;4.27;;
10275;SDS011;5183;51.190;6.820;2023-04-01T06:33:25;4.13;;;3.73;;
10275;SDS011;5183;51.190;6.820;2023-04-01T06:39:15;3.77;;;3.47;;
10275;SDS011;5183;51.190;6.820;2023-04-01T06:45:03;4.47;;;4.07;;
10275;SDS011;5183;51.190;6.820;2023-04-01T06:47:44;5.10;;;3.43;;
10275;SDS011;5183;51.190;6.820;2023-04-01T06:50:24;4.40;;;3.87;;
10275;SDS011;5183;51.190;6.820;2023-04-01T06:52:56;4.23;;;3.77;;
10275;SDS011;5183;51.190;6.820;2023-04-01T06:55:31;5.00;;;3.70;;
10275;SDS011;5183;51.190;6.820;2023-04-01T06:58:04;4.43;;;3.53;;
10275;SDS011;5183;51.190;6.820;2023-04-01T07:00:38;9.40;;;3.70;;
10275;SDS011;5183;51.190;6.820;2023-04-01T07:03:10;4.97;;;3.50;;
10275;SDS011;5183;51.190;6.820;2023-04-01T07:05:46;4.43;;;3.20;;
10275;SDS011;5183;51.190;6.820;2023-04-01T07:08:15;4.67;;;3.10;;
10275;SDS011;5183;51.190;6.820;2023-04-01T07:10:47;4.07;;;3.33;;
10275;SDS011;5183;51.190;6.820;2023-04-01T07:13:18;4.10;;;3.50;;
10275;SDS011;5183;51.190;6.820;2023-04-01T07:15:54;6.17;;;3.27;;
10275;SDS011;5183;51.190;6.820;2023-04-01T07:18:28;4.20;;;3.80;;
10275;SDS011;5183;51.190;6.820;2023-04-01T07:21:00;5.10;;;3.10;;
10275;SDS011;5183;51.190;6.820;2023-04-01T07:23:29;5.30;;;3.50;;
10275;SDS011;5183;51.190;6.820;2023-04-01T07:26:04;3.80;;;3.17;;
10275;SDS011;5183;51.190;6.820;2023-04-01T07:28:40;4.97;;;3.40;;
10275;SDS011;5183;51.190;6.820;2023-04-01T07:31:13;3.77;;;3.33;;
10275;SDS011;5183;51.190;6.820;2023-04-01T07:33:48;4.10;;;3.70;;
10275;SDS011;5183;51.190;6.820;2023-04-01T07:36:21;5.47;;;4.03;;
10275;SDS011;5183;51.190;6.820;2023-04-01T07:38:57;4.27;;;3.20;;
10275;SDS011;5183;51.190;6.820;2023-04-01T07:41:32;4.10;;;3.80;;
10275;SDS011;5183;51.190;6.820;2023-04-01T07:44:10;4.23;;;3.77;;
10275;SDS011;5183;51.190;6.820;2023-04-01T07:46:49;5.00;;;3.97;;
10275;SDS011;5183;51.190;6.820;2023-04-01T07:49:35;4.93;;;3.87;;
10275;SDS011;5183;51.190;6.820;2023-04-01T07:52:12;4.40;;;4.00;;
10275;SDS011;5183;51.190;6.820;2023-04-01T07:54:48;5.00;;;4.60;;
10275;SDS011;5183;51.190;6.820;2023-04-01T07:57:20;5.50;;;4.40;;
10275;SDS011;5183;51.190;6.820;2023-04-01T07:59:56;5.17;;;4.30;;
10275;SDS011;5183;51.190;6.820;2023-04-01T08:02:30;5.93;;;4.63;;
10275;SDS011;5183;51.190;6.820;2023-04-01T08:05:14;5.70;;;5.10;;
10275;SDS011;5183;51.190;6.820;2023-04-01T08:07:49;5.80;;;5.28;;
10275;SDS011;5183;51.190;6.820;2023-04-01T08:10:24;4.83;;;4.37;;
10275;SDS011;5183;51.190;6.820;2023-04-01T08:13:01;5.17;;;4.67;;
10275;SDS011;5183;51.190;6.820;2023-04-01T08:15:36;7.43;;;5.13;;
10275;SDS011;5183;51.190;6.820;2023-04-01T08:18:15;5.13;;;4.67;;
10275;SDS011;5183;51.190;6.820;2023-04-01T08:20:50;5.33;;;4.83;;
10275;SDS011;5183;51.190;6.820;2023-04-01T08:23:21;6.53;;;5.27;;
10275;SDS011;5183;51.190;6.820;2023-04-01T08:25:52;5.20;;;4.70;;
10275;SDS011;5183;51.190;6.820;2023-04-01T08:28:24;5.60;;;5.10;;
10275;SDS011;5183;51.190;6.820;2023-04-01T08:30:56;5.53;;;4.93;;
10275;SDS011;5183;51.190;6.820;2023-04-01T08:33:30;5.00;;;4.40;;
10275;SDS011;5183;51.190;6.820;2023-04-01T08:35:59;5.10;;;4.60;;
10275;SDS011;5183;51.190;6.820;2023-04-01T08:38:31;5.23;;;4.73;;
10275;SDS011;5183;51.190;6.820;2023-04-01T08:41:03;5.20;;;4.80;;
10275;SDS011;5183;51.190;6.820;2023-04-01T08:44:04;5.37;;;4.83;;
10275;SDS011;5183;51.190;6.820;2023-04-01T08:46:51;5.90;;;4.63;;
10275;SDS011;5183;51.190;6.820;2023-04-01T08:49:43;5.53;;;5.03;;
10275;SDS011;5183;51.190;6.820;2023-04-01T08:52:26;4.67;;;4.27;;
10275;SDS011;5183;51.190;6.820;2023-04-01T09:01:15;5.63;;;5.07;;
10275;SDS011;5183;51.190;6.820;2023-04-01T09:12:44;6.33;;;5.80;;
10275;SDS011;5183;51.190;6.820;2023-04-01T09:15:42;7.10;;;6.50;;
10275;SDS011;5183;51.190;6.820;2023-04-01T09:21:43;6.20;;;5.60;;
10275;SDS011;5183;51.190;6.820;2023-04-01T09:24:32;6.17;;;5.60;;
10275;SDS011;5183;51.190;6.820;2023-04-01T09:27:28;6.47;;;5.87;;
10275;SDS011;5183;51.190;6.820;2023-04-01T09:33:15;6.70;;;6.00;;
10275;SDS011;5183;51.190;6.820;2023-04-01T09:36:02;6.70;;;6.10;;
10275;SDS011;5183;51.190;6.820;2023-04-01T09:38:36;7.10;;;6.50;;
10275;SDS011;5183;51.190;6.820;2023-04-01T09:41:15;7.77;;;7.07;;
10275;SDS011;5183;51.190;6.820;2023-04-01T09:43:57;7.77;;;7.07;;
10275;SDS011;5183;51.190;6.820;2023-04-01T09:46:31;8.70;;;7.57;;
10275;SDS011;5183;51.190;6.820;2023-04-01T09:49:19;9.80;;;8.67;;
10275;SDS011;5183;51.190;6.820;2023-04-01T09:52:21;12.20;;;9.73;;
10275;SDS011;5183;51.190;6.820;2023-04-01T09:55:15;12.70;;;10.63;;
10275;SDS011;5183;51.190;6.820;2023-04-01T09:58:03;13.87;;;10.80;;
10275;SDS011;5183;51.190;6.820;2023-04-01T10:00:55;11.17;;;10.07;;
10275;SDS011;5183;51.190;6.820;2023-04-01T10:04:10;12.13;;;10.70;;
10275;SDS011;5183;51.190;6.820;2023-04-01T10:10:15;12.03;;;10.83;;
10275;SDS011;5183;51.190;6.820;2023-04-01T10:16:25;12.77;;;10.80;;
10275;SDS011;5183;51.190;6.820;2023-04-01T10:25:04;9.80;;;8.80;;
10275;SDS011;5183;51.190;6.820;2023-04-01T10:28:01;8.83;;;8.03;;
10275;SDS011;5183;51.190;6.820;2023-04-01T10:30:49;8.57;;;7.80;;
10275;SDS011;5183;51.190;6.820;2023-04-01T10:33:55;8.98;;;8.15;;
10275;SDS011;5183;51.190;6.820;2023-04-01T10:36:50;7.57;;;6.67;;
10275;SDS011;5183;51.190;6.820;2023-04-01T10:42:51;6.20;;;5.70;;
10275;SDS011;5183;51.190;6.820;2023-04-01T10:45:59;5.90;;;5.40;;
10275;SDS011;5183;51.190;6.820;2023-04-01T10:48:50;6.13;;;5.63;;
10275;SDS011;5183;51.190;6.820;2023-04-01T10:54:44;6.73;;;6.13;;
10275;SDS011;5183;51.190;6.820;2023-04-01T11:00:39;7.10;;;5.80;;
10275;SDS011;5183;51.190;6.820;2023-04-01T11:06:31;7.33;;;6.63;;
10275;SDS011;5183;51.190;6.820;2023-04-01T11:12:49;8.50;;;7.70;;
10275;SDS011;5183;51.190;6.820;2023-04-01T11:18:55;8.83;;;8.03;;
10275;SDS011;5183;51.190;6.820;2023-04-01T11:22:22;9.87;;;8.90;;
10275;SDS011;5183;51.190;6.820;2023-04-01T11:30:49;11.43;;;10.32;;
10275;SDS011;5183;51.190;6.820;2023-04-01T11:33:38;10.60;;;9.60;;
10275;SDS011;5183;51.190;6.820;2023-04-01T11:36:12;10.70;;;9.60;;
10275;SDS011;5183;51.190;6.820;2023-04-01T11:38:55;11.07;;;9.80;;
10275;SDS011;5183;51.190;6.820;2023-04-01T11:41:31;11.47;;;10.47;;
10275;SDS011;5183;51.190;6.820;2023-04-01T11:44:10;11.25;;;10.15;;
10275;SDS011;5183;51.190;6.820;2023-04-01T11:46:46;9.27;;;8.47;;
10275;SDS011;5183;51.190;6.820;2023-04-01T11:49:29;9.33;;;8.43;;
10275;SDS011;5183;51.190;6.820;2023-04-01T11:55:04;9.80;;;8.80;;
10275;SDS011;5183;51.190;6.820;2023-04-01T11:57:48;11.77;;;10.37;;
10275;SDS011;5183;51.190;6.820;2023-04-01T12:00:27;11.27;;;10.13;;
10275;SDS011;5183;51.190;6.820;2023-04-01T12:03:10;12.90;;;11.43;;
10275;SDS011;5183;51.190;6.820;2023-04-01T12:05:48;12.27;;;11.07;;
10275;SDS011;5183;51.190;6.820;2023-04-01T12:08:23;12.43;;;11.13;;
10275;SDS011;5183;51.190;6.820;2023-04-01T12:11:03;12.77;;;11.57;;
10275;SDS011;5183;51.190;6.820;2023-04-01T12:13:42;12.33;;;11.13;;
10275;SDS011;5183;51.190;6.820;2023-04-01T12:16:15;12.10;;;10.90;;
10275;SDS011;5183;51.190;6.820;2023-04-01T12:19:04;11.70;;;10.43;;
10275;SDS011;5183;51.190;6.820;2023-04-01T12:21:38;11.53;;;10.43;;
10275;SDS011;5183;51.190;6.820;2023-04-01T12:24:22;12.80;;;11.33;;
10275;SDS011;5183;51.190;6.820;2023-04-01T12:27:10;12.77;;;11.47;;
10275;SDS011;5183;51.190;6.820;2023-04-01T12:30:05;11.70;;;10.60;;
10275;SDS011;5183;51.190;6.820;2023-04-01T12:33:20;12.43;;;11.23;;
10275;SDS011;5183;51.190;6.820;2023-04-01T12:36:02;13.20;;;11.80;;
10275;SDS011;5183;51.190;6.820;2023-04-01T12:38:42;13.90;;;12.23;;
10275;SDS011;5183;51.190;6.820;2023-04-01T12:41:18;12.50;;;11.20;;
10275;SDS011;5183;51.190;6.820;2023-04-01T12:43:59;12.47;;;11.27;;
10275;SDS011;5183;51.190;6.820;2023-04-01T12:46:42;12.50;;;11.30;;
10275;SDS011;5183;51.190;6.820;2023-04-01T12:49:49;12.27;;;11.17;;
10275;SDS011;5183;51.190;6.820;2023-04-01T12:52:23;12.40;;;11.20;;
10275;SDS011;5183;51.190;6.820;2023-04-01T12:55:13;12.60;;;11.30;;
10275;SDS011;5183;51.190;6.820;2023-04-01T13:01:22;13.80;;;11.10;;
10275;SDS011;5183;51.190;6.820;2023-04-01T13:06:57;12.83;;;11.63;;
10275;SDS011;5183;51.190;6.820;2023-04-01T13:09:47;11.90;;;10.70;;
10275;SDS011;5183;51.190;6.820;2023-04-01T13:12:26;12.60;;;11.43;;
10275;SDS011;5183;51.190;6.820;2023-04-01T13:15:17;11.73;;;10.70;;
10275;SDS011;5183;51.190;6.820;2023-04-01T13:17:56;12.23;;;11.03;;
10275;SDS011;5183;51.190;6.820;2023-04-01T13:20:33;11.60;;;10.50;;
10275;SDS011;5183;51.190;6.820;2023-04-01T13:23:10;10.80;;;9.83;;
10275;SDS011;5183;51.190;6.820;2023-04-01T13:25:50;10.73;;;9.73;;
10275;SDS011;5183;51.190;6.820;2023-04-01T13:28:24;10.70;;;9.67;;
10275;SDS011;5183;51.190;6.820;2023-04-01T13:30:55;10.50;;;9.50;;
10275;SDS011;5183;51.190;6.820;2023-04-01T13:33:34;10.07;;;9.10;;
10275;SDS011;5183;51.190;6.820;2023-04-01T13:36:11;8.93;;;8.03;;
10275;SDS011;5183;51.190;6.820;2023-04-01T13:38:53;9.47;;;8.57;;
10275;SDS011;5183;51.190;6.820;2023-04-01T13:41:39;9.93;;;8.93;;
10275;SDS011;5183;51.190;6.820;2023-04-01T13:44:16;10.57;;;9.30;;
10275;SDS011;5183;51.190;6.820;2023-04-01T13:46:52;9.00;;;8.20;;
10275;SDS011;5183;51.190;6.820;2023-04-01T13:49:43;9.23;;;8.37;;
10275;SDS011;5183;51.190;6.820;2023-04-01T13:52:27;9.17;;;8.37;;
10275;SDS011;5183;51.190;6.820;2023-04-01T13:55:06;8.57;;;7.88;;
10275;SDS011;5183;51.190;6.820;2023-04-01T13:58:00;8.80;;;8.10;;
10275;SDS011;5183;51.190;6.820;2023-04-01T14:00:46;8.10;;;7.40;;
10275;SDS011;5183;51.190;6.820;2023-04-01T14:03:26;8.27;;;7.47;;
10275;SDS011;5183;51.190;6.820;2023-04-01T14:06:04;8.18;;;7.47;;
10275;SDS011;5183;51.190;6.820;2023-04-01T14:08:42;8.83;;;8.07;;
10275;SDS011;5183;51.190;6.820;2023-04-01T14:11:25;9.23;;;8.43;;
10275;SDS011;5183;51.190;6.820;2023-04-01T14:13:59;8.87;;;8.17;;
10275;SDS011;5183;51.190;6.820;2023-04-01T14:19:59;9.40;;;8.70;;
10275;SDS011;5183;51.190;6.820;2023-04-01T14:22:45;11.13;;;10.03;;
10275;SDS011;5183;51.190;6.820;2023-04-01T14:25:28;9.50;;;8.70;;
10275;SDS011;5183;51.190;6.820;2023-04-01T14:28:12;8.43;;;7.73;;
10275;SDS011;5183;51.190;6.820;2023-04-01T14:30:51;10.27;;;9.37;;
10275;SDS011;5183;51.190;6.820;2023-04-01T14:33:33;7.70;;;7.10;;
10275;SDS011;5183;51.190;6.820;2023-04-01T14:39:02;7.07;;;6.57;;
10275;SDS011;5183;51.190;6.820;2023-04-01T14:41:44;6.67;;;6.10;;
10275;SDS011;5183;51.190;6.820;2023-04-01T14:44:18;6.70;;;6.20;;
10275;SDS011;5183;51.190;6.820;2023-04-01T14:47:08;6.03;;;5.63;;
10275;SDS011;5183;51.190;6.820;2023-04-01T14:49:46;5.80;;;5.30;;
10275;SDS011;5183;51.190;6.820;2023-04-01T14:52:15;4.73;;;4.33;;
10275;SDS011;5183;51.190;6.820;2023-04-01T14:54:50;4.90;;;4.50;;
10275;SDS011;5183;51.190;6.820;2023-04-01T14:57:22;5.53;;;5.07;;
10275;SDS011;5183;51.190;6.820;2023-04-01T14:59:51;5.30;;;4.90;;
10275;SDS011;5183;51.190;6.820;2023-04-01T15:05:23;5.63;;;5.03;;
10275;SDS011;5183;51.190;6.820;2023-04-01T15:08:01;6.18;;;5.78;;
10275;SDS011;5183;51.190;6.820;2023-04-01T15:10:42;6.23;;;5.63;;
10275;SDS011;5183;51.190;6.820;2023-04-01T15:13:31;5.87;;;5.40;;
10275;SDS011;5183;51.190;6.820;2023-04-01T15:16:11;6.77;;;6.27;;
10275;SDS011;5183;51.190;6.820;2023-04-01T15:18:49;7.53;;;6.93;;
10275;SDS011;5183;51.190;6.820;2023-04-01T15:21:32;7.40;;;6.80;;
10275;SDS011;5183;51.190;6.820;2023-04-01T15:24:20;8.30;;;7.60;;
10275;SDS011;5183;51.190;6.820;2023-04-01T15:26:56;9.30;;;8.40;;
10275;SDS011;5183;51.190;6.820;2023-04-01T15:32:46;9.82;;;8.93;;
10275;SDS011;5183;51.190;6.820;2023-04-01T15:35:33;8.93;;;8.03;;
10275;SDS011;5183;51.190;6.820;2023-04-01T15:38:06;8.80;;;7.93;;
10275;SDS011;5183;51.190;6.820;2023-04-01T15:40:42;9.67;;;7.70;;
10275;SDS011;5183;51.190;6.820;2023-04-01T15:43:17;8.00;;;6.83;;
10275;SDS011;5183;51.190;6.820;2023-04-01T15:45:56;7.90;;;7.10;;
10275;SDS011;5183;51.190;6.820;2023-04-01T15:48:40;8.47;;;7.67;;
10275;SDS011;5183;51.190;6.820;2023-04-01T15:51:19;8.43;;;7.53;;
10275;SDS011;5183;51.190;6.820;2023-04-01T15:57:15;8.33;;;7.57;;
10275;SDS011;5183;51.190;6.820;2023-04-01T16:00:00;8.27;;;7.37;;
10275;SDS011;5183;51.190;6.820;2023-04-01T16:02:36;8.00;;;7.30;;
10275;SDS011;5183;51.190;6.820;2023-04-01T16:05:11;8.17;;;6.80;;
10275;SDS011;5183;51.190;6.820;2023-04-01T16:08:08;7.43;;;6.80;;
10275;SDS011;5183;51.190;6.820;2023-04-01T16:10:58;8.20;;;7.40;;
10275;SDS011;5183;51.190;6.820;2023-04-01T16:13:38;8.33;;;7.60;;
10275;SDS011;5183;51.190;6.820;2023-04-01T16:16:17;8.57;;;7.67;;
10275;SDS011;5183;51.190;6.820;2023-04-01T16:18:58;8.80;;;7.90;;
10275;SDS011;5183;51.190;6.820;2023-04-01T16:21:41;9.60;;;8.40;;
10275;SDS011;5183;51.190;6.820;2023-04-01T16:24:14;10.00;;;9.00;;
10275;SDS011;5183;51.190;6.820;2023-04-01T16:26:48;10.90;;;9.80;;
10275;SDS011;5183;51.190;6.820;2023-04-01T16:29:21;9.73;;;8.83;;
10275;SDS011;5183;51.190;6.820;2023-04-01T16:31:57;9.87;;;8.90;;
10275;SDS011;5183;51.190;6.820;2023-04-01T16:34:34;9.20;;;8.40;;
10275;SDS011;5183;51.190;6.820;2023-04-01T16:37:05;9.10;;;8.10;;
10275;SDS011;5183;51.190;6.820;2023-04-01T16:39:41;8.30;;;7.50;;
10275;SDS011;5183;51.190;6.820;2023-04-01T16:42:31;8.13;;;7.43;;
10275;SDS011;5183;51.190;6.820;2023-04-01T16:45:19;8.37;;;7.63;;
10275;SDS011;5183;51.190;6.820;2023-04-01T16:47:56;8.30;;;7.50;;
10275;SDS011;5183;51.190;6.820;2023-04-01T16:50:28;9.33;;;8.43;;
10275;SDS011;5183;51.190;6.820;2023-04-01T16:53:08;9.43;;;8.53;;
10275;SDS011;5183;51.190;6.820;2023-04-01T16:55:45;9.47;;;8.50;;
10275;SDS011;5183;51.190;6.820;2023-04-01T16:58:18;10.60;;;9.40;;
10275;SDS011;5183;51.190;6.820;2023-04-01T17:00:51;9.37;;;8.40;;
10275;SDS011;5183;51.190;6.820;2023-04-01T17:03:25;10.60;;;9.60;;
10275;SDS011;5183;51.190;6.820;2023-04-01T17:06:00;10.77;;;9.77;;
10275;SDS011;5183;51.190;6.820;2023-04-01T17:08:50;10.83;;;9.83;;
10275;SDS011;5183;51.190;6.820;2023-04-01T17:11:26;10.33;;;9.23;;
10275;SDS011;5183;51.190;6.820;2023-04-01T17:14:00;10.10;;;9.13;;
10275;SDS011;5183;51.190;6.820;2023-04-01T17:16:42;11.40;;;10.40;;
10275;SDS011;5183;51.190;6.820;2023-04-01T17:19:26;9.77;;;8.87;;
10275;SDS011;5183;51.190;6.820;2023-04-01T17:22:11;10.93;;;9.93;;
10275;SDS011;5183;51.190;6.820;2023-04-01T17:24:51;11.50;;;8.67;;
10275;SDS011;5183;51.190;6.820;2023-04-01T17:27:32;8.97;;;8.07;;